sensor_id;sensor_type;location;lat;lon;timestamp;temperature;humidity
52531;DHT22;38441;52.894;6.040;2023-01-19T00:00:48;3.50;99.90
52531;DHT22;38441;52.894;6.040;2023-01-19T00:05:41;3.50;99.90
52531;DHT22;38441;52.894;6.040;2023-01-19T00:10:49;3.70;99.90
52531;DHT22;38441;52.894;6.040;2023-01-19T00:15:44;3.60;99.90
52531;DHT22;38441;52.894;6.040;2023-01-19T00:18:10;3.50;99.90
52531;DHT22;38441;52.894;6.040;2023-01-19T00:35:13;3.70;99.90
52531;DHT22;38441;52.894;6.040;2023-01-19T00:40:06;3.70;99.90
52531;DHT22;38441;52.894;6.040;2023-01-19T00:45:14;3.60;99.90
52531;DHT22;38441;52.894;6.040;2023-01-19T00:50:08;3.60;99.90
52531;DHT22;38441;52.894;6.040;2023-01-19T01:12:04;3.40;99.90
52531;DHT22;38441;52.894;6.040;2023-01-19T01:14:30;3.50;99.90
52531;DHT22;38441;52.894;6.040;2023-01-19T01:29:06;3.40;99.90
52531;DHT22;38441;52.894;6.040;2023-01-19T01:43:48;3.20;99.90
52531;DHT22;38441;52.894;6.040;2023-01-19T01:46:15;3.20;99.90
52531;DHT22;38441;52.894;6.040;2023-01-19T01:48:44;3.20;99.90
52531;DHT22;38441;52.894;6.040;2023-01-19T01:51:26;3.20;99.90
52531;DHT22;38441;52.894;6.040;2023-01-19T01:54:04;3.20;99.90
52531;DHT22;38441;52.894;6.040;2023-01-19T01:56:42;3.20;99.90
52531;DHT22;38441;52.894;6.040;2023-01-19T01:59:15;3.20;99.90
52531;DHT22;38441;52.894;6.040;2023-01-19T02:01:50;3.40;99.90
52531;DHT22;38441;52.894;6.040;2023-01-19T02:04:35;3.20;99.90
52531;DHT22;38441;52.894;6.040;2023-01-19T02:07:01;3.10;99.90
52531;DHT22;38441;52.894;6.040;2023-01-19T02:09:45;3.10;99.90
52531;DHT22;38441;52.894;6.040;2023-01-19T02:12:30;3.30;99.90
52531;DHT22;38441;52.894;6.040;2023-01-19T02:15:16;3.00;99.90
52531;DHT22;38441;52.894;6.040;2023-01-19T02:17:41;3.20;99.90
52531;DHT22;38441;52.894;6.040;2023-01-19T02:20:07;3.30;99.90
52531;DHT22;38441;52.894;6.040;2023-01-19T02:22:36;3.20;99.90
52531;DHT22;38441;52.894;6.040;2023-01-19T02:25:05;3.20;99.90
52531;DHT22;38441;52.894;6.040;2023-01-19T02:27:31;3.30;99.90
52531;DHT22;38441;52.894;6.040;2023-01-19T02:29:57;3.20;99.90
52531;DHT22;38441;52.894;6.040;2023-01-19T02:32:23;3.20;99.90
52531;DHT22;38441;52.894;6.040;2023-01-19T02:34:48;3.40;99.90
52531;DHT22;38441;52.894;6.040;2023-01-19T02:37:14;3.40;99.90
52531;DHT22;38441;52.894;6.040;2023-01-19T02:42:17;3.40;99.90
52531;DHT22;38441;52.894;6.040;2023-01-19T02:44:44;3.50;99.90
52531;DHT22;38441;52.894;6.040;2023-01-19T02:47:11;3.40;99.90
52531;DHT22;38441;52.894;6.040;2023-01-19T02:49:37;3.60;99.90
52531;DHT22;38441;52.894;6.040;2023-01-19T02:52:02;3.40;99.90
52531;DHT22;38441;52.894;6.040;2023-01-19T02:54:35;3.40;99.90
52531;DHT22;38441;52.894;6.040;2023-01-19T03:02:16;3.40;99.90
52531;DHT22;38441;52.894;6.040;2023-01-19T03:04:52;4.30;99.90
52531;DHT22;38441;52.894;6.040;2023-01-19T03:09:48;3.20;99.90
52531;DHT22;38441;52.894;6.040;2023-01-19T03:12:26;3.50;99.90
52531;DHT22;38441;52.894;6.040;2023-01-19T03:14:57;3.50;99.90
52531;DHT22;38441;52.894;6.040;2023-01-19T03:17:24;3.40;99.90
52531;DHT22;38441;52.894;6.040;2023-01-19T03:19:53;3.50;99.90
52531;DHT22;38441;52.894;6.040;2023-01-19T03:22:26;3.30;99.90
52531;DHT22;38441;52.894;6.040;2023-01-19T03:24:54;4.50;99.90
52531;DHT22;38441;52.894;6.040;2023-01-19T03:27:24;3.30;99.90
52531;DHT22;38441;52.894;6.040;2023-01-19T03:29:54;3.40;99.90
52531;DHT22;38441;52.894;6.040;2023-01-19T03:32:22;3.40;99.90
52531;DHT22;38441;52.894;6.040;2023-01-19T03:34:50;3.40;99.90
52531;DHT22;38441;52.894;6.040;2023-01-19T03:37:15;3.30;99.90
52531;DHT22;38441;52.894;6.040;2023-01-19T03:39:43;3.30;99.90
52531;DHT22;38441;52.894;6.040;2023-01-19T03:42:10;3.30;99.90
52531;DHT22;38441;52.894;6.040;2023-01-19T03:44:37;3.40;99.90
52531;DHT22;38441;52.894;6.040;2023-01-19T03:47:04;3.40;99.90
52531;DHT22;38441;52.894;6.040;2023-01-19T03:49:31;3.40;99.90
52531;DHT22;38441;52.894;6.040;2023-01-19T03:51:57;3.50;99.90
52531;DHT22;38441;52.894;6.040;2023-01-19T03:54:23;3.50;99.90
52531;DHT22;38441;52.894;6.040;2023-01-19T03:56:49;3.30;99.90
52531;DHT22;38441;52.894;6.040;2023-01-19T03:59:14;3.60;99.90
52531;DHT22;38441;52.894;6.040;2023-01-19T04:01:41;3.50;99.90
52531;DHT22;38441;52.894;6.040;2023-01-19T04:04:07;3.30;99.90
52531;DHT22;38441;52.894;6.040;2023-01-19T04:06:33;3.20;99.90
52531;DHT22;38441;52.894;6.040;2023-01-19T04:08:58;3.40;99.90
52531;DHT22;38441;52.894;6.040;2023-01-19T04:11:24;3.40;99.90
52531;DHT22;38441;52.894;6.040;2023-01-19T04:13:49;3.40;99.90
52531;DHT22;38441;52.894;6.040;2023-01-19T04:16:15;3.60;99.90
52531;DHT22;38441;52.894;6.040;2023-01-19T04:18:44;3.40;99.90
52531;DHT22;38441;52.894;6.040;2023-01-19T04:21:13;3.40;99.90
52531;DHT22;38441;52.894;6.040;2023-01-19T04:23:41;3.30;99.90
52531;DHT22;38441;52.894;6.040;2023-01-19T04:26:08;3.60;99.90
52531;DHT22;38441;52.894;6.040;2023-01-19T04:28:39;3.50;99.90
52531;DHT22;38441;52.894;6.040;2023-01-19T04:49:47;4.10;99.90
52531;DHT22;38441;52.894;6.040;2023-01-19T04:52:25;4.10;99.90
52531;DHT22;38441;52.894;6.040;2023-01-19T04:55:11;4.10;99.90
52531;DHT22;38441;52.894;6.040;2023-01-19T04:57:37;5.60;99.90
52531;DHT22;38441;52.894;6.040;2023-01-19T05:00:04;3.80;99.90
52531;DHT22;38441;52.894;6.040;2023-01-19T05:02:31;3.80;99.90
52531;DHT22;38441;52.894;6.040;2023-01-19T05:04:56;3.90;99.90
52531;DHT22;38441;52.894;6.040;2023-01-19T05:07:22;3.90;99.90
52531;DHT22;38441;52.894;6.040;2023-01-19T05:09:48;3.80;99.90
52531;DHT22;38441;52.894;6.040;2023-01-19T05:12:13;2.80;99.90
52531;DHT22;38441;52.894;6.040;2023-01-19T05:14:39;3.60;99.90
52531;DHT22;38441;52.894;6.040;2023-01-19T05:17:05;3.70;99.90
52531;DHT22;38441;52.894;6.040;2023-01-19T05:19:31;3.70;99.90
52531;DHT22;38441;52.894;6.040;2023-01-19T05:21:56;3.40;99.90
52531;DHT22;38441;52.894;6.040;2023-01-19T05:24:22;3.50;99.90
52531;DHT22;38441;52.894;6.040;2023-01-19T05:26:47;3.40;99.90
52531;DHT22;38441;52.894;6.040;2023-01-19T05:29:13;3.60;99.90
52531;DHT22;38441;52.894;6.040;2023-01-19T05:31:38;3.40;99.90
52531;DHT22;38441;52.894;6.040;2023-01-19T05:34:04;3.20;99.90
52531;DHT22;38441;52.894;6.040;2023-01-19T05:36:29;3.40;99.90
52531;DHT22;38441;52.894;6.040;2023-01-19T05:38:55;3.30;99.90
52531;DHT22;38441;52.894;6.040;2023-01-19T05:41:21;3.20;99.90
52531;DHT22;38441;52.894;6.040;2023-01-19T05:43:46;3.40;99.90
52531;DHT22;38441;52.894;6.040;2023-01-19T05:46:12;3.10;99.90
52531;DHT22;38441;52.894;6.040;2023-01-19T05:48:37;3.10;99.90
52531;DHT22;38441;52.894;6.040;2023-01-19T05:51:03;3.20;99.90
52531;DHT22;38441;52.894;6.040;2023-01-19T05:53:29;3.20;99.90
52531;DHT22;38441;52.894;6.040;2023-01-19T05:56:01;2.90;99.90
52531;DHT22;38441;52.894;6.040;2023-01-19T05:58:26;3.40;99.90
52531;DHT22;38441;52.894;6.040;2023-01-19T06:00:53;3.00;99.90
52531;DHT22;38441;52.894;6.040;2023-01-19T06:03:18;3.00;99.90
52531;DHT22;38441;52.894;6.040;2023-01-19T06:05:44;2.90;99.90
52531;DHT22;38441;52.894;6.040;2023-01-19T06:08:09;3.00;99.90
52531;DHT22;38441;52.894;6.040;2023-01-19T06:10:35;2.90;99.90
52531;DHT22;38441;52.894;6.040;2023-01-19T06:13:00;3.10;99.90
52531;DHT22;38441;52.894;6.040;2023-01-19T06:15:26;2.90;99.90
52531;DHT22;38441;52.894;6.040;2023-01-19T06:17:51;3.10;99.90
52531;DHT22;38441;52.894;6.040;2023-01-19T06:20:17;3.20;99.90
52531;DHT22;38441;52.894;6.040;2023-01-19T06:22:42;3.30;99.90
52531;DHT22;38441;52.894;6.040;2023-01-19T06:25:08;3.20;99.90
52531;DHT22;38441;52.894;6.040;2023-01-19T06:27:34;3.50;99.90
52531;DHT22;38441;52.894;6.040;2023-01-19T06:30:01;3.10;99.90
52531;DHT22;38441;52.894;6.040;2023-01-19T06:32:26;3.20;99.90
52531;DHT22;38441;52.894;6.040;2023-01-19T06:34:52;3.20;99.90
52531;DHT22;38441;52.894;6.040;2023-01-19T06:37:17;3.10;99.90
52531;DHT22;38441;52.894;6.040;2023-01-19T06:39:43;3.30;99.90
52531;DHT22;38441;52.894;6.040;2023-01-19T06:42:09;3.30;99.90
52531;DHT22;38441;52.894;6.040;2023-01-19T06:44:35;3.50;99.90
52531;DHT22;38441;52.894;6.040;2023-01-19T06:47:00;3.40;99.90
52531;DHT22;38441;52.894;6.040;2023-01-19T06:49:26;3.20;99.90
52531;DHT22;38441;52.894;6.040;2023-01-19T06:52:04;3.10;99.90
52531;DHT22;38441;52.894;6.040;2023-01-19T06:54:29;3.30;99.90
52531;DHT22;38441;52.894;6.040;2023-01-19T06:56:55;3.20;99.90
52531;DHT22;38441;52.894;6.040;2023-01-19T06:59:20;3.10;99.90
52531;DHT22;38441;52.894;6.040;2023-01-19T07:01:46;2.90;99.90
52531;DHT22;38441;52.894;6.040;2023-01-19T07:04:11;3.20;99.90
52531;DHT22;38441;52.894;6.040;2023-01-19T07:06:38;3.10;99.90
52531;DHT22;38441;52.894;6.040;2023-01-19T07:09:04;3.20;99.90
52531;DHT22;38441;52.894;6.040;2023-01-19T07:11:32;3.00;99.90
52531;DHT22;38441;52.894;6.040;2023-01-19T07:13:57;3.30;99.90
52531;DHT22;38441;52.894;6.040;2023-01-19T07:16:23;3.10;99.90
52531;DHT22;38441;52.894;6.040;2023-01-19T07:18:49;3.20;99.90
52531;DHT22;38441;52.894;6.040;2023-01-19T07:21:15;3.20;99.90
52531;DHT22;38441;52.894;6.040;2023-01-19T07:23:40;3.10;99.90
52531;DHT22;38441;52.894;6.040;2023-01-19T07:26:08;2.90;99.90
52531;DHT22;38441;52.894;6.040;2023-01-19T07:28:34;3.00;99.90
52531;DHT22;38441;52.894;6.040;2023-01-19T07:31:01;2.90;99.90
52531;DHT22;38441;52.894;6.040;2023-01-19T07:33:27;3.00;99.90
52531;DHT22;38441;52.894;6.040;2023-01-19T07:35:57;3.30;99.90
52531;DHT22;38441;52.894;6.040;2023-01-19T07:38:22;3.30;99.90
52531;DHT22;38441;52.894;6.040;2023-01-19T07:41:21;3.40;99.90
52531;DHT22;38441;52.894;6.040;2023-01-19T07:43:40;3.30;99.90
52531;DHT22;38441;52.894;6.040;2023-01-19T07:46:06;3.50;99.90
52531;DHT22;38441;52.894;6.040;2023-01-19T07:48:32;3.40;99.90
52531;DHT22;38441;52.894;6.040;2023-01-19T07:51:06;3.50;99.90
52531;DHT22;38441;52.894;6.040;2023-01-19T07:53:37;3.50;99.90
52531;DHT22;38441;52.894;6.040;2023-01-19T07:56:02;3.60;99.90
52531;DHT22;38441;52.894;6.040;2023-01-19T07:58:31;3.50;99.90
52531;DHT22;38441;52.894;6.040;2023-01-19T08:00:57;3.30;99.90
52531;DHT22;38441;52.894;6.040;2023-01-19T08:03:23;3.40;99.90
52531;DHT22;38441;52.894;6.040;2023-01-19T08:05:49;3.30;99.90
52531;DHT22;38441;52.894;6.040;2023-01-19T08:08:15;3.40;99.90
52531;DHT22;38441;52.894;6.040;2023-01-19T08:10:40;3.40;99.90
52531;DHT22;38441;52.894;6.040;2023-01-19T08:13:06;3.30;99.90
52531;DHT22;38441;52.894;6.040;2023-01-19T08:15:32;3.30;99.90
52531;DHT22;38441;52.894;6.040;2023-01-19T08:18:13;3.20;99.90
52531;DHT22;38441;52.894;6.040;2023-01-19T08:20:39;3.20;99.90
52531;DHT22;38441;52.894;6.040;2023-01-19T08:23:05;3.10;99.90
52531;DHT22;38441;52.894;6.040;2023-01-19T08:25:32;3.10;99.90
52531;DHT22;38441;52.894;6.040;2023-01-19T08:27:58;3.10;99.90
52531;DHT22;38441;52.894;6.040;2023-01-19T08:30:23;2.80;99.90
52531;DHT22;38441;52.894;6.040;2023-01-19T08:32:54;2.90;99.90
52531;DHT22;38441;52.894;6.040;2023-01-19T08:35:31;2.90;99.90
52531;DHT22;38441;52.894;6.040;2023-01-19T08:37:57;3.10;99.90
52531;DHT22;38441;52.894;6.040;2023-01-19T08:40:32;2.90;99.90
52531;DHT22;38441;52.894;6.040;2023-01-19T08:42:59;2.90;99.90
52531;DHT22;38441;52.894;6.040;2023-01-19T08:45:32;2.90;99.90
52531;DHT22;38441;52.894;6.040;2023-01-19T08:47:58;2.90;99.90
52531;DHT22;38441;52.894;6.040;2023-01-19T08:50:27;2.90;99.90
52531;DHT22;38441;52.894;6.040;2023-01-19T08:52:57;2.80;99.90
52531;DHT22;38441;52.894;6.040;2023-01-19T08:55:24;2.90;99.90
52531;DHT22;38441;52.894;6.040;2023-01-19T08:57:50;2.90;99.90
52531;DHT22;38441;52.894;6.040;2023-01-19T09:00:16;3.00;99.90
52531;DHT22;38441;52.894;6.040;2023-01-19T09:02:41;3.00;99.90
52531;DHT22;38441;52.894;6.040;2023-01-19T09:05:07;2.90;99.90
52531;DHT22;38441;52.894;6.040;2023-01-19T09:07:32;3.10;99.90
52531;DHT22;38441;52.894;6.040;2023-01-19T09:09:58;2.90;99.90
52531;DHT22;38441;52.894;6.040;2023-01-19T09:12:23;3.00;99.90
52531;DHT22;38441;52.894;6.040;2023-01-19T09:14:49;2.90;99.90
52531;DHT22;38441;52.894;6.040;2023-01-19T09:17:14;3.10;99.90
52531;DHT22;38441;52.894;6.040;2023-01-19T09:19:42;3.20;99.90
52531;DHT22;38441;52.894;6.040;2023-01-19T09:22:07;3.10;99.90
52531;DHT22;38441;52.894;6.040;2023-01-19T09:24:33;3.00;99.90
52531;DHT22;38441;52.894;6.040;2023-01-19T09:26:59;3.40;99.90
52531;DHT22;38441;52.894;6.040;2023-01-19T09:29:25;3.30;99.90
52531;DHT22;38441;52.894;6.040;2023-01-19T09:31:53;3.30;99.90
52531;DHT22;38441;52.894;6.040;2023-01-19T09:34:19;3.30;99.90
52531;DHT22;38441;52.894;6.040;2023-01-19T09:36:46;3.30;99.90
52531;DHT22;38441;52.894;6.040;2023-01-19T09:39:12;3.50;99.90
52531;DHT22;38441;52.894;6.040;2023-01-19T09:41:38;3.60;99.90
52531;DHT22;38441;52.894;6.040;2023-01-19T09:44:07;3.60;99.90
52531;DHT22;38441;52.894;6.040;2023-01-19T09:46:38;3.60;99.90
52531;DHT22;38441;52.894;6.040;2023-01-19T09:49:08;3.80;99.90
52531;DHT22;38441;52.894;6.040;2023-01-19T09:51:36;4.50;99.90
52531;DHT22;38441;52.894;6.040;2023-01-19T09:54:10;3.70;99.90
52531;DHT22;38441;52.894;6.040;2023-01-19T09:56:37;3.90;99.90
52531;DHT22;38441;52.894;6.040;2023-01-19T09:59:19;3.80;99.90
52531;DHT22;38441;52.894;6.040;2023-01-19T10:02:05;4.00;99.90
52531;DHT22;38441;52.894;6.040;2023-01-19T10:04:36;5.00;99.90
52531;DHT22;38441;52.894;6.040;2023-01-19T10:12:01;4.20;99.90
52531;DHT22;38441;52.894;6.040;2023-01-19T10:14:42;4.40;99.90
52531;DHT22;38441;52.894;6.040;2023-01-19T10:19:43;4.60;99.90
52531;DHT22;38441;52.894;6.040;2023-01-19T10:22:21;4.40;99.90
52531;DHT22;38441;52.894;6.040;2023-01-19T10:24:47;4.60;99.90
52531;DHT22;38441;52.894;6.040;2023-01-19T10:27:17;4.50;99.90
52531;DHT22;38441;52.894;6.040;2023-01-19T10:29:47;4.70;99.90
52531;DHT22;38441;52.894;6.040;2023-01-19T10:32:14;5.00;99.90
52531;DHT22;38441;52.894;6.040;2023-01-19T10:34:49;4.80;99.90
52531;DHT22;38441;52.894;6.040;2023-01-19T10:37:24;4.80;99.90
52531;DHT22;38441;52.894;6.040;2023-01-19T10:39:56;5.30;99.90
52531;DHT22;38441;52.894;6.040;2023-01-19T10:42:22;4.70;99.90
52531;DHT22;38441;52.894;6.040;2023-01-19T10:44:48;4.90;99.90
52531;DHT22;38441;52.894;6.040;2023-01-19T10:47:18;5.00;99.90
52531;DHT22;38441;52.894;6.040;2023-01-19T10:49:43;5.00;99.90
52531;DHT22;38441;52.894;6.040;2023-01-19T10:52:30;6.30;99.90
52531;DHT22;38441;52.894;6.040;2023-01-19T10:54:57;5.10;99.90
52531;DHT22;38441;52.894;6.040;2023-01-19T10:57:30;7.20;99.90
52531;DHT22;38441;52.894;6.040;2023-01-19T10:59:56;5.30;99.90
52531;DHT22;38441;52.894;6.040;2023-01-19T11:02:23;3.70;99.90
52531;DHT22;38441;52.894;6.040;2023-01-19T11:04:51;5.20;99.90
52531;DHT22;38441;52.894;6.040;2023-01-19T11:07:33;5.10;99.90
52531;DHT22;38441;52.894;6.040;2023-01-19T11:15:14;5.20;99.90
52531;DHT22;38441;52.894;6.040;2023-01-19T11:17:41;5.40;99.90
52531;DHT22;38441;52.894;6.040;2023-01-19T11:20:12;3.90;99.90
52531;DHT22;38441;52.894;6.040;2023-01-19T11:22:42;6.40;99.90
52531;DHT22;38441;52.894;6.040;2023-01-19T11:25:18;4.90;99.90
52531;DHT22;38441;52.894;6.040;2023-01-19T11:27:48;4.90;99.90
52531;DHT22;38441;52.894;6.040;2023-01-19T11:30:18;5.00;99.90
52531;DHT22;38441;52.894;6.040;2023-01-19T11:32:44;5.30;99.90
52531;DHT22;38441;52.894;6.040;2023-01-19T11:40:53;5.20;99.90
52531;DHT22;38441;52.894;6.040;2023-01-19T11:43:19;5.50;99.90
52531;DHT22;38441;52.894;6.040;2023-01-19T11:45:45;5.10;99.90
52531;DHT22;38441;52.894;6.040;2023-01-19T11:48:14;5.10;99.90
52531;DHT22;38441;52.894;6.040;2023-01-19T11:50:43;5.20;99.90
52531;DHT22;38441;52.894;6.040;2023-01-19T11:53:22;6.30;99.90
52531;DHT22;38441;52.894;6.040;2023-01-19T11:58:18;5.70;99.90
52531;DHT22;38441;52.894;6.040;2023-01-19T12:03:29;6.10;99.90
52531;DHT22;38441;52.894;6.040;2023-01-19T12:06:00;5.70;99.90
52531;DHT22;38441;52.894;6.040;2023-01-19T12:08:29;6.30;99.90
52531;DHT22;38441;52.894;6.040;2023-01-19T12:10:57;5.90;99.90
52531;DHT22;38441;52.894;6.040;2023-01-19T12:13:25;5.70;99.90
52531;DHT22;38441;52.894;6.040;2023-01-19T12:15:52;4.80;99.90
52531;DHT22;38441;52.894;6.040;2023-01-19T12:18:23;7.50;99.90
52531;DHT22;38441;52.894;6.040;2023-01-19T12:20:49;6.10;99.90
52531;DHT22;38441;52.894;6.040;2023-01-19T12:28:47;6.10;99.90
52531;DHT22;38441;52.894;6.040;2023-01-19T12:31:17;6.50;99.90
52531;DHT22;38441;52.894;6.040;2023-01-19T12:33:43;5.80;99.90
52531;DHT22;38441;52.894;6.040;2023-01-19T12:38:42;5.90;99.90
52531;DHT22;38441;52.894;6.040;2023-01-19T12:43:40;5.60;99.90
52531;DHT22;38441;52.894;6.040;2023-01-19T12:49:04;5.90;99.90
52531;DHT22;38441;52.894;6.040;2023-01-19T12:51:31;5.30;99.90
52531;DHT22;38441;52.894;6.040;2023-01-19T12:53:57;5.40;99.90
52531;DHT22;38441;52.894;6.040;2023-01-19T12:56:31;5.40;99.90
52531;DHT22;38441;52.894;6.040;2023-01-19T12:58:58;5.70;99.90
52531;DHT22;38441;52.894;6.040;2023-01-19T13:01:23;5.50;99.90
52531;DHT22;38441;52.894;6.040;2023-01-19T13:03:59;4.80;99.90
52531;DHT22;38441;52.894;6.040;2023-01-19T13:14:38;5.90;99.90
52531;DHT22;38441;52.894;6.040;2023-01-19T13:17:04;5.60;99.90
52531;DHT22;38441;52.894;6.040;2023-01-19T13:19:35;5.50;99.90
52531;DHT22;38441;52.894;6.040;2023-01-19T13:25:05;6.10;99.90
52531;DHT22;38441;52.894;6.040;2023-01-19T13:27:33;5.90;99.90
52531;DHT22;38441;52.894;6.040;2023-01-19T13:29:58;5.40;99.90
52531;DHT22;38441;52.894;6.040;2023-01-19T13:32:25;8.50;99.90
52531;DHT22;38441;52.894;6.040;2023-01-19T13:34:52;5.50;99.90
52531;DHT22;38441;52.894;6.040;2023-01-19T13:37:19;5.90;99.90
52531;DHT22;38441;52.894;6.040;2023-01-19T13:39:46;4.30;99.90
52531;DHT22;38441;52.894;6.040;2023-01-19T13:42:15;5.30;99.90
52531;DHT22;38441;52.894;6.040;2023-01-19T13:44:43;4.10;99.90
52531;DHT22;38441;52.894;6.040;2023-01-19T13:47:14;6.20;99.90
52531;DHT22;38441;52.894;6.040;2023-01-19T13:49:41;6.10;99.90
52531;DHT22;38441;52.894;6.040;2023-01-19T13:57:20;5.10;99.90
52531;DHT22;38441;52.894;6.040;2023-01-19T13:59:59;5.30;99.90
52531;DHT22;38441;52.894;6.040;2023-01-19T14:02:24;5.10;99.90
52531;DHT22;38441;52.894;6.040;2023-01-19T14:04:50;4.90;99.90
52531;DHT22;38441;52.894;6.040;2023-01-19T14:07:17;5.00;99.90
52531;DHT22;38441;52.894;6.040;2023-01-19T14:10:05;8.20;99.90
52531;DHT22;38441;52.894;6.040;2023-01-19T14:12:30;5.20;99.90
52531;DHT22;38441;52.894;6.040;2023-01-19T14:14:59;5.00;99.90
52531;DHT22;38441;52.894;6.040;2023-01-19T14:17:26;4.90;99.90
52531;DHT22;38441;52.894;6.040;2023-01-19T14:19:55;4.30;99.90
52531;DHT22;38441;52.894;6.040;2023-01-19T14:22:41;6.40;99.90
52531;DHT22;38441;52.894;6.040;2023-01-19T14:30:58;5.10;99.90
52531;DHT22;38441;52.894;6.040;2023-01-19T14:33:40;5.10;99.90
52531;DHT22;38441;52.894;6.040;2023-01-19T14:36:09;5.30;99.90
52531;DHT22;38441;52.894;6.040;2023-01-19T14:38:35;5.50;99.90
52531;DHT22;38441;52.894;6.040;2023-01-19T14:41:01;5.10;99.90
52531;DHT22;38441;52.894;6.040;2023-01-19T14:43:26;5.10;99.90
52531;DHT22;38441;52.894;6.040;2023-01-19T14:45:54;4.90;99.90
52531;DHT22;38441;52.894;6.040;2023-01-19T14:48:20;5.00;99.90
52531;DHT22;38441;52.894;6.040;2023-01-19T14:50:47;5.00;99.90
52531;DHT22;38441;52.894;6.040;2023-01-19T14:53:15;3.80;99.90
52531;DHT22;38441;52.894;6.040;2023-01-19T14:58:17;4.90;99.90
52531;DHT22;38441;52.894;6.040;2023-01-19T15:00:43;5.90;99.90
52531;DHT22;38441;52.894;6.040;2023-01-19T15:03:09;4.90;99.90
52531;DHT22;38441;52.894;6.040;2023-01-19T15:05:35;4.90;99.90
52531;DHT22;38441;52.894;6.040;2023-01-19T15:08:01;5.90;99.90
52531;DHT22;38441;52.894;6.040;2023-01-19T15:10:27;3.90;99.90
52531;DHT22;38441;52.894;6.040;2023-01-19T15:12:53;4.80;99.90
52531;DHT22;38441;52.894;6.040;2023-01-19T15:15:32;4.70;99.90
52531;DHT22;38441;52.894;6.040;2023-01-19T15:17:58;3.70;99.90
52531;DHT22;38441;52.894;6.040;2023-01-19T15:20:25;4.60;99.90
52531;DHT22;38441;52.894;6.040;2023-01-19T15:22:50;2.60;99.90
52531;DHT22;38441;52.894;6.040;2023-01-19T15:25:20;4.60;99.90
52531;DHT22;38441;52.894;6.040;2023-01-19T15:27:46;4.70;99.90
52531;DHT22;38441;52.894;6.040;2023-01-19T15:30:12;4.50;99.90
52531;DHT22;38441;52.894;6.040;2023-01-19T15:32:38;4.50;99.90
52531;DHT22;38441;52.894;6.040;2023-01-19T15:35:11;4.30;99.90
52531;DHT22;38441;52.894;6.040;2023-01-19T15:37:37;4.40;99.90
52531;DHT22;38441;52.894;6.040;2023-01-19T15:40:03;4.20;99.90
52531;DHT22;38441;52.894;6.040;2023-01-19T15:42:28;3.90;99.90
52531;DHT22;38441;52.894;6.040;2023-01-19T15:47:48;4.00;99.90
52531;DHT22;38441;52.894;6.040;2023-01-19T15:50:13;3.80;99.90
52531;DHT22;38441;52.894;6.040;2023-01-19T15:52:39;4.00;99.90
52531;DHT22;38441;52.894;6.040;2023-01-19T15:55:05;3.80;99.90
52531;DHT22;38441;52.894;6.040;2023-01-19T15:57:30;3.80;99.90
52531;DHT22;38441;52.894;6.040;2023-01-19T15:59:56;3.80;99.90
52531;DHT22;38441;52.894;6.040;2023-01-19T16:02:21;3.80;99.90
52531;DHT22;38441;52.894;6.040;2023-01-19T16:04:47;3.70;99.90
52531;DHT22;38441;52.894;6.040;2023-01-19T16:07:13;3.80;99.90
52531;DHT22;38441;52.894;6.040;2023-01-19T16:09:38;3.60;99.90
52531;DHT22;38441;52.894;6.040;2023-01-19T16:12:04;3.50;99.90
52531;DHT22;38441;52.894;6.040;2023-01-19T16:14:30;3.70;99.90
52531;DHT22;38441;52.894;6.040;2023-01-19T16:16:55;3.60;99.90
52531;DHT22;38441;52.894;6.040;2023-01-19T16:19:24;3.40;99.90
52531;DHT22;38441;52.894;6.040;2023-01-19T16:21:49;3.50;99.90
52531;DHT22;38441;52.894;6.040;2023-01-19T16:24:15;3.30;99.90
52531;DHT22;38441;52.894;6.040;2023-01-19T16:26:40;3.30;99.90
52531;DHT22;38441;52.894;6.040;2023-01-19T16:29:07;3.30;99.90
52531;DHT22;38441;52.894;6.040;2023-01-19T16:31:34;3.30;99.90
52531;DHT22;38441;52.894;6.040;2023-01-19T16:34:02;3.20;99.90
52531;DHT22;38441;52.894;6.040;2023-01-19T16:36:28;3.30;99.90
52531;DHT22;38441;52.894;6.040;2023-01-19T16:38:59;3.10;99.90
52531;DHT22;38441;52.894;6.040;2023-01-19T16:41:24;3.40;99.90
52531;DHT22;38441;52.894;6.040;2023-01-19T16:43:53;3.10;99.90
52531;DHT22;38441;52.894;6.040;2023-01-19T16:46:24;3.00;99.90
52531;DHT22;38441;52.894;6.040;2023-01-19T16:48:50;3.00;99.90
52531;DHT22;38441;52.894;6.040;2023-01-19T16:51:21;2.90;99.90
52531;DHT22;38441;52.894;6.040;2023-01-19T16:53:47;3.20;99.90
52531;DHT22;38441;52.894;6.040;2023-01-19T16:56:13;2.90;99.90
52531;DHT22;38441;52.894;6.040;2023-01-19T16:58:39;2.80;99.90
52531;DHT22;38441;52.894;6.040;2023-01-19T17:01:12;2.70;99.90
52531;DHT22;38441;52.894;6.040;2023-01-19T17:03:39;2.90;99.90
52531;DHT22;38441;52.894;6.040;2023-01-19T17:06:04;2.60;99.90
52531;DHT22;38441;52.894;6.040;2023-01-19T17:08:30;2.70;99.90
52531;DHT22;38441;52.894;6.040;2023-01-19T17:10:56;2.60;99.90
52531;DHT22;38441;52.894;6.040;2023-01-19T17:13:22;2.50;99.90
52531;DHT22;38441;52.894;6.040;2023-01-19T17:15:47;2.50;99.90
52531;DHT22;38441;52.894;6.040;2023-01-19T17:18:13;2.40;99.90
52531;DHT22;38441;52.894;6.040;2023-01-19T17:20:38;2.30;99.90
52531;DHT22;38441;52.894;6.040;2023-01-19T17:23:04;2.40;99.90
52531;DHT22;38441;52.894;6.040;2023-01-19T17:25:30;3.40;99.90
52531;DHT22;38441;52.894;6.040;2023-01-19T17:27:56;2.50;99.90
52531;DHT22;38441;52.894;6.040;2023-01-19T17:30:22;2.60;99.90
52531;DHT22;38441;52.894;6.040;2023-01-19T17:32:48;2.30;99.90
52531;DHT22;38441;52.894;6.040;2023-01-19T17:35:13;2.30;99.90
52531;DHT22;38441;52.894;6.040;2023-01-19T17:37:39;2.30;99.90
52531;DHT22;38441;52.894;6.040;2023-01-19T17:40:04;2.40;99.90
52531;DHT22;38441;52.894;6.040;2023-01-19T17:42:30;2.40;99.90
52531;DHT22;38441;52.894;6.040;2023-01-19T17:44:56;2.30;99.90
52531;DHT22;38441;52.894;6.040;2023-01-19T17:47:21;2.40;99.90
52531;DHT22;38441;52.894;6.040;2023-01-19T17:49:50;2.20;99.90
52531;DHT22;38441;52.894;6.040;2023-01-19T17:52:15;2.20;99.90
52531;DHT22;38441;52.894;6.040;2023-01-19T17:54:41;2.30;99.90
52531;DHT22;38441;52.894;6.040;2023-01-19T17:57:06;2.40;99.90
52531;DHT22;38441;52.894;6.040;2023-01-19T17:59:32;2.30;99.90
52531;DHT22;38441;52.894;6.040;2023-01-19T18:01:57;2.20;99.90
52531;DHT22;38441;52.894;6.040;2023-01-19T18:04:23;2.00;99.90
52531;DHT22;38441;52.894;6.040;2023-01-19T18:06:48;1.90;99.90
52531;DHT22;38441;52.894;6.040;2023-01-19T18:09:14;2.10;99.90
52531;DHT22;38441;52.894;6.040;2023-01-19T18:11:40;1.80;99.90
52531;DHT22;38441;52.894;6.040;2023-01-19T18:14:07;2.00;99.90
52531;DHT22;38441;52.894;6.040;2023-01-19T18:16:32;1.90;99.90
52531;DHT22;38441;52.894;6.040;2023-01-19T18:18:58;2.10;99.90
52531;DHT22;38441;52.894;6.040;2023-01-19T18:21:24;2.10;99.90
52531;DHT22;38441;52.894;6.040;2023-01-19T18:23:51;2.00;99.90
52531;DHT22;38441;52.894;6.040;2023-01-19T18:26:22;1.90;99.90
52531;DHT22;38441;52.894;6.040;2023-01-19T18:28:48;1.90;99.90
52531;DHT22;38441;52.894;6.040;2023-01-19T18:33:40;1.90;99.90
52531;DHT22;38441;52.894;6.040;2023-01-19T18:36:05;1.60;99.90
52531;DHT22;38441;52.894;6.040;2023-01-19T18:38:31;1.70;99.90